sensor_id;sensor_type;location;lat;lon;timestamp;pressure;altitude;pressure_sealevel;temperature;humidity
55070;BME280;40967;52.070;8.596;2023-07-29T00:01:51;99689.56;;;19.68;100.00
55070;BME280;40967;52.070;8.596;2023-07-29T00:04:19;99697.13;;;19.71;100.00
55070;BME280;40967;52.070;8.596;2023-07-29T00:06:45;99709.28;;;19.70;100.00
55070;BME280;40967;52.070;8.596;2023-07-29T00:09:10;99711.59;;;19.68;100.00
55070;BME280;40967;52.070;8.596;2023-07-29T00:11:36;99700.47;;;19.65;100.00
55070;BME280;40967;52.070;8.596;2023-07-29T00:14:01;99694.50;;;19.63;100.00
55070;BME280;40967;52.070;8.596;2023-07-29T00:16:27;99694.88;;;19.61;100.00
55070;BME280;40967;52.070;8.596;2023-07-29T00:18:52;99683.19;;;19.52;100.00
55070;BME280;40967;52.070;8.596;2023-07-29T00:21:18;99687.63;;;19.57;100.00
55070;BME280;40967;52.070;8.596;2023-07-29T00:23:43;99690.03;;;19.58;100.00
55070;BME280;40967;52.070;8.596;2023-07-29T00:26:09;99691.66;;;19.59;100.00
55070;BME280;40967;52.070;8.596;2023-07-29T00:28:34;99694.06;;;19.61;100.00
55070;BME280;40967;52.070;8.596;2023-07-29T00:30:59;99680.75;;;19.63;100.00
55070;BME280;40967;52.070;8.596;2023-07-29T00:33:25;99684.06;;;19.68;100.00
55070;BME280;40967;52.070;8.596;2023-07-29T00:35:50;99685.56;;;19.66;100.00
55070;BME280;40967;52.070;8.596;2023-07-29T00:38:16;99683.25;;;19.68;100.00
55070;BME280;40967;52.070;8.596;2023-07-29T00:40:42;99692.06;;;19.73;100.00
55070;BME280;40967;52.070;8.596;2023-07-29T00:43:08;99674.44;;;19.62;100.00
55070;BME280;40967;52.070;8.596;2023-07-29T00:45:34;99685.75;;;19.73;100.00
55070;BME280;40967;52.070;8.596;2023-07-29T00:48:00;99695.59;;;19.74;100.00
55070;BME280;40967;52.070;8.596;2023-07-29T00:50:26;99687.03;;;19.75;100.00
55070;BME280;40967;52.070;8.596;2023-07-29T00:52:54;99676.00;;;19.75;100.00
55070;BME280;40967;52.070;8.596;2023-07-29T00:55:19;99682.28;;;19.76;100.00
55070;BME280;40967;52.070;8.596;2023-07-29T00:57:45;99676.78;;;19.76;100.00
55070;BME280;40967;52.070;8.596;2023-07-29T01:00:14;99685.84;;;19.76;100.00
55070;BME280;40967;52.070;8.596;2023-07-29T01:02:40;99670.94;;;19.77;100.00
55070;BME280;40967;52.070;8.596;2023-07-29T01:05:06;99670.94;;;19.77;100.00
55070;BME280;40967;52.070;8.596;2023-07-29T01:08:03;99669.78;;;19.78;100.00
55070;BME280;40967;52.070;8.596;2023-07-29T01:13:28;99669.44;;;19.80;100.00
55070;BME280;40967;52.070;8.596;2023-07-29T01:16:01;99665.88;;;19.79;100.00
55070;BME280;40967;52.070;8.596;2023-07-29T01:18:35;99663.13;;;19.79;100.00
55070;BME280;40967;52.070;8.596;2023-07-29T01:21:07;99652.81;;;19.76;100.00
55070;BME280;40967;52.070;8.596;2023-07-29T01:23:34;99651.66;;;19.77;100.00
55070;BME280;40967;52.070;8.596;2023-07-29T01:26:00;99656.28;;;19.73;100.00
55070;BME280;40967;52.070;8.596;2023-07-29T01:28:27;99661.78;;;19.73;100.00
55070;BME280;40967;52.070;8.596;2023-07-29T01:30:58;99662.56;;;19.74;100.00
55070;BME280;40967;52.070;8.596;2023-07-29T01:33:31;99660.06;;;19.69;100.00
55070;BME280;40967;52.070;8.596;2023-07-29T01:36:05;99661.69;;;19.70;100.00
55070;BME280;40967;52.070;8.596;2023-07-29T01:38:35;99667.19;;;19.70;100.00
55070;BME280;40967;52.070;8.596;2023-07-29T01:41:03;99662.50;;;19.70;100.00
55070;BME280;40967;52.070;8.596;2023-07-29T01:43:30;99656.66;;;19.72;100.00
55070;BME280;40967;52.070;8.596;2023-07-29T01:45:56;99655.84;;;19.71;100.00
55070;BME280;40967;52.070;8.596;2023-07-29T01:48:22;99647.13;;;19.69;100.00
55070;BME280;40967;52.070;8.596;2023-07-29T01:50:47;99650.69;;;19.70;100.00
55070;BME280;40967;52.070;8.596;2023-07-29T01:53:12;99639.22;;;19.68;100.00
55070;BME280;40967;52.070;8.596;2023-07-29T01:55:38;99648.03;;;19.73;100.00
55070;BME280;40967;52.070;8.596;2023-07-29T01:58:04;99640.22;;;19.75;100.00
55070;BME280;40967;52.070;8.596;2023-07-29T02:00:29;99643.41;;;19.77;100.00
55070;BME280;40967;52.070;8.596;2023-07-29T02:02:55;99642.63;;;19.77;100.00
55070;BME280;40967;52.070;8.596;2023-07-29T02:05:25;99646.88;;;19.74;100.00
55070;BME280;40967;52.070;8.596;2023-07-29T02:07:50;99639.41;;;19.75;100.00
55070;BME280;40967;52.070;8.596;2023-07-29T02:10:15;99635.84;;;19.74;100.00
55070;BME280;40967;52.070;8.596;2023-07-29T02:12:41;99628.75;;;19.73;100.00
55070;BME280;40967;52.070;8.596;2023-07-29T02:15:07;99641.72;;;19.73;100.00
55070;BME280;40967;52.070;8.596;2023-07-29T02:17:32;99625.00;;;19.66;100.00
55070;BME280;40967;52.070;8.596;2023-07-29T02:20:01;99637.72;;;19.70;100.00
55070;BME280;40967;52.070;8.596;2023-07-29T02:22:28;99631.53;;;19.73;100.00
55070;BME280;40967;52.070;8.596;2023-07-29T02:24:53;99629.53;;;19.74;100.00
55070;BME280;40967;52.070;8.596;2023-07-29T02:27:19;99631.97;;;19.75;100.00
55070;BME280;40967;52.070;8.596;2023-07-29T02:29:44;99633.00;;;19.71;100.00
55070;BME280;40967;52.070;8.596;2023-07-29T02:32:09;99628.13;;;19.64;100.00
55070;BME280;40967;52.070;8.596;2023-07-29T02:34:35;99632.91;;;19.67;100.00
55070;BME280;40967;52.070;8.596;2023-07-29T02:37:00;99630.97;;;19.68;100.00
55070;BME280;40967;52.070;8.596;2023-07-29T02:39:25;99635.22;;;19.65;100.00
55070;BME280;40967;52.070;8.596;2023-07-29T02:41:51;99634.44;;;19.65;100.00
55070;BME280;40967;52.070;8.596;2023-07-29T02:44:16;99625.38;;;19.64;100.00
55070;BME280;40967;52.070;8.596;2023-07-29T02:46:42;99630.75;;;19.61;100.00
55070;BME280;40967;52.070;8.596;2023-07-29T02:49:07;99637.44;;;19.60;100.00
55070;BME280;40967;52.070;8.596;2023-07-29T02:51:32;99636.53;;;19.56;100.00
55070;BME280;40967;52.070;8.596;2023-07-29T02:53:58;99630.47;;;19.50;100.00
55070;BME280;40967;52.070;8.596;2023-07-29T02:56:23;99633.66;;;19.52;100.00
55070;BME280;40967;52.070;8.596;2023-07-29T02:58:49;99621.03;;;19.51;100.00
55070;BME280;40967;52.070;8.596;2023-07-29T03:01:16;99624.72;;;19.55;100.00
55070;BME280;40967;52.070;8.596;2023-07-29T03:03:42;99621.97;;;19.55;100.00
55070;BME280;40967;52.070;8.596;2023-07-29T03:06:13;99617.63;;;19.54;100.00
55070;BME280;40967;52.070;8.596;2023-07-29T03:08:39;99614.50;;;19.56;100.00
55070;BME280;40967;52.070;8.596;2023-07-29T03:11:10;99617.25;;;19.56;100.00
55070;BME280;40967;52.070;8.596;2023-07-29T03:13:35;99613.25;;;19.53;100.00
55070;BME280;40967;52.070;8.596;2023-07-29T03:16:08;99607.28;;;19.51;100.00
55070;BME280;40967;52.070;8.596;2023-07-29T03:18:34;99612.88;;;19.55;100.00
55070;BME280;40967;52.070;8.596;2023-07-29T03:21:00;99611.31;;;19.54;100.00
55070;BME280;40967;52.070;8.596;2023-07-29T03:23:25;99611.31;;;19.54;100.00
55070;BME280;40967;52.070;8.596;2023-07-29T03:25:51;99609.38;;;19.54;100.00
55070;BME280;40967;52.070;8.596;2023-07-29T03:28:18;99603.41;;;19.52;100.00
55070;BME280;40967;52.070;8.596;2023-07-29T03:30:43;99614.50;;;19.56;100.00
55070;BME280;40967;52.070;8.596;2023-07-29T03:33:09;99610.59;;;19.57;100.00
55070;BME280;40967;52.070;8.596;2023-07-29T03:35:34;99598.72;;;19.53;100.00
55070;BME280;40967;52.070;8.596;2023-07-29T03:37:59;99597.19;;;19.55;100.00
55070;BME280;40967;52.070;8.596;2023-07-29T03:40:25;99596.84;;;19.57;100.00
55070;BME280;40967;52.070;8.596;2023-07-29T03:42:50;99600.75;;;19.56;100.00
55070;BME280;40967;52.070;8.596;2023-07-29T03:45:16;99597.19;;;19.55;100.00
55070;BME280;40967;52.070;8.596;2023-07-29T03:47:41;99597.19;;;19.55;100.00
55070;BME280;40967;52.070;8.596;2023-07-29T03:50:08;99592.41;;;19.52;100.00
55070;BME280;40967;52.070;8.596;2023-07-29T03:52:33;99595.97;;;19.53;100.00
55070;BME280;40967;52.070;8.596;2023-07-29T03:54:59;99598.59;;;19.49;100.00
55070;BME280;40967;52.070;8.596;2023-07-29T03:57:24;99599.38;;;19.50;100.00
55070;BME280;40967;52.070;8.596;2023-07-29T03:59:50;99591.13;;;19.50;100.00
55070;BME280;40967;52.070;8.596;2023-07-29T04:02:15;99590.72;;;19.48;100.00
55070;BME280;40967;52.070;8.596;2023-07-29T04:04:40;99593.53;;;19.51;100.00
55070;BME280;40967;52.070;8.596;2023-07-29T04:07:07;99595.84;;;19.49;100.00
55070;BME280;40967;52.070;8.596;2023-07-29T04:09:33;99597.09;;;19.52;100.00
55070;BME280;40967;52.070;8.596;2023-07-29T04:11:58;99599.50;;;19.53;100.00
55070;BME280;40967;52.070;8.596;2023-07-29T04:14:23;99601.09;;;19.54;100.00
55070;BME280;40967;52.070;8.596;2023-07-29T04:16:49;99594.69;;;19.50;100.00
55070;BME280;40967;52.070;8.596;2023-07-29T04:19:14;99589.81;;;19.44;100.00
55070;BME280;40967;52.070;8.596;2023-07-29T04:21:40;99577.69;;;19.33;100.00
55070;BME280;40967;52.070;8.596;2023-07-29T04:24:05;99587.75;;;19.41;100.00
55070;BME280;40967;52.070;8.596;2023-07-29T04:26:30;99592.91;;;19.42;100.00
55070;BME280;40967;52.070;8.596;2023-07-29T04:28:56;99589.69;;;19.40;100.00
55070;BME280;40967;52.070;8.596;2023-07-29T04:31:21;99584.09;;;19.37;100.00
55070;BME280;40967;52.070;8.596;2023-07-29T04:33:47;99583.53;;;19.31;100.00
55070;BME280;40967;52.070;8.596;2023-07-29T04:36:12;99586.41;;;19.35;100.00
55070;BME280;40967;52.070;8.596;2023-07-29T04:38:37;99576.97;;;19.36;100.00
55070;BME280;40967;52.070;8.596;2023-07-29T04:41:03;99581.00;;;19.38;100.00
55070;BME280;40967;52.070;8.596;2023-07-29T04:43:30;99587.41;;;19.42;100.00
55070;BME280;40967;52.070;8.596;2023-07-29T04:45:56;99588.28;;;19.46;100.00
55070;BME280;40967;52.070;8.596;2023-07-29T04:48:22;99576.84;;;19.44;100.00
55070;BME280;40967;52.070;8.596;2023-07-29T04:50:47;99585.22;;;19.48;100.00
55070;BME280;40967;52.070;8.596;2023-07-29T04:53:13;99564.69;;;19.45;100.00
55070;BME280;40967;52.070;8.596;2023-07-29T04:55:38;99581.28;;;19.49;100.00
55070;BME280;40967;52.070;8.596;2023-07-29T04:58:05;99582.09;;;19.49;100.00
55070;BME280;40967;52.070;8.596;2023-07-29T05:00:31;99572.31;;;19.52;100.00
55070;BME280;40967;52.070;8.596;2023-07-29T05:02:56;99572.44;;;19.55;100.00
55070;BME280;40967;52.070;8.596;2023-07-29T05:05:22;99570.47;;;19.56;100.00
55070;BME280;40967;52.070;8.596;2023-07-29T05:07:47;99571.03;;;19.61;100.00
55070;BME280;40967;52.070;8.596;2023-07-29T05:10:13;99558.75;;;19.59;100.00
55070;BME280;40967;52.070;8.596;2023-07-29T05:12:38;99559.66;;;19.63;100.00
55070;BME280;40967;52.070;8.596;2023-07-29T05:15:04;99569.69;;;19.71;100.00
55070;BME280;40967;52.070;8.596;2023-07-29T05:17:30;99567.75;;;19.71;100.00
55070;BME280;40967;52.070;8.596;2023-07-29T05:19:55;99565.56;;;19.77;100.00
55070;BME280;40967;52.070;8.596;2023-07-29T05:22:21;99563.25;;;19.79;100.00
55070;BME280;40967;52.070;8.596;2023-07-29T05:24:46;99566.53;;;19.84;100.00
55070;BME280;40967;52.070;8.596;2023-07-29T05:27:12;99560.31;;;19.87;100.00
55070;BME280;40967;52.070;8.596;2023-07-29T05:29:37;99563.63;;;19.93;100.00
55070;BME280;40967;52.070;8.596;2023-07-29T05:32:02;99560.16;;;19.96;100.00
55070;BME280;40967;52.070;8.596;2023-07-29T05:34:28;99552.00;;;19.99;100.00
55070;BME280;40967;52.070;8.596;2023-07-29T05:36:53;99557.69;;;20.06;100.00
55070;BME280;40967;52.070;8.596;2023-07-29T05:39:19;99571.09;;;20.08;100.00
55070;BME280;40967;52.070;8.596;2023-07-29T05:41:44;99562.38;;;20.06;100.00
55070;BME280;40967;52.070;8.596;2023-07-29T05:44:10;99559.63;;;20.06;100.00
55070;BME280;40967;52.070;8.596;2023-07-29T05:46:36;99571.25;;;20.15;100.00
55070;BME280;40967;52.070;8.596;2023-07-29T05:49:01;99570.66;;;20.21;100.00
55070;BME280;40967;52.070;8.596;2023-07-29T05:51:27;99556.91;;;20.21;100.00
55070;BME280;40967;52.070;8.596;2023-07-29T05:53:53;99553.50;;;20.28;100.00
55070;BME280;40967;52.070;8.596;2023-07-29T05:56:18;99565.88;;;20.34;100.00
55070;BME280;40967;52.070;8.596;2023-07-29T05:58:44;99549.16;;;20.43;100.00
55070;BME280;40967;52.070;8.596;2023-07-29T06:01:09;99548.06;;;20.47;100.00
55070;BME280;40967;52.070;8.596;2023-07-29T06:03:34;99547.00;;;20.52;100.00
55070;BME280;40967;52.070;8.596;2023-07-29T06:06:03;99550.63;;;20.56;100.00
55070;BME280;40967;52.070;8.596;2023-07-29T06:08:31;99558.88;;;20.56;100.00
55070;BME280;40967;52.070;8.596;2023-07-29T06:10:59;99560.88;;;20.55;100.00
55070;BME280;40967;52.070;8.596;2023-07-29T06:13:25;99574.28;;;20.57;100.00
55070;BME280;40967;52.070;8.596;2023-07-29T06:15:50;99575.41;;;20.56;100.00
55070;BME280;40967;52.070;8.596;2023-07-29T06:18:15;99576.31;;;20.60;100.00
55070;BME280;40967;52.070;8.596;2023-07-29T06:20:41;99576.03;;;20.65;100.00
55070;BME280;40967;52.070;8.596;2023-07-29T06:23:08;99576.19;;;20.72;100.00
55070;BME280;40967;52.070;8.596;2023-07-29T06:25:33;99586.94;;;20.77;100.00
55070;BME280;40967;52.070;8.596;2023-07-29T06:27:59;99594.06;;;20.78;100.00
55070;BME280;40967;52.070;8.596;2023-07-29T06:30:24;99590.50;;;20.77;100.00
55070;BME280;40967;52.070;8.596;2023-07-29T06:32:50;99584.09;;;20.73;100.00
55070;BME280;40967;52.070;8.596;2023-07-29T06:35:16;99589.53;;;20.70;100.00
55070;BME280;40967;52.070;8.596;2023-07-29T06:37:41;99587.88;;;20.65;100.00
55070;BME280;40967;52.070;8.596;2023-07-29T06:40:07;99584.31;;;20.65;100.00
55070;BME280;40967;52.070;8.596;2023-07-29T06:42:32;99569.63;;;20.61;100.00
55070;BME280;40967;52.070;8.596;2023-07-29T06:44:58;99564.84;;;20.58;100.00
55070;BME280;40967;52.070;8.596;2023-07-29T06:47:23;99536.50;;;20.57;100.00
55070;BME280;40967;52.070;8.596;2023-07-29T06:49:48;99528.94;;;20.54;100.00
55070;BME280;40967;52.070;8.596;2023-07-29T06:52:14;99559.84;;;20.63;100.00
55070;BME280;40967;52.070;8.596;2023-07-29T06:54:39;99557.09;;;20.63;100.00
55070;BME280;40967;52.070;8.596;2023-07-29T06:57:05;99569.88;;;20.71;100.00
55070;BME280;40967;52.070;8.596;2023-07-29T06:59:30;99570.84;;;20.79;100.00
55070;BME280;40967;52.070;8.596;2023-07-29T07:01:56;99581.22;;;20.85;100.00
55070;BME280;40967;52.070;8.596;2023-07-29T07:04:21;99586.38;;;20.87;100.00
55070;BME280;40967;52.070;8.596;2023-07-29T07:06:46;99583.22;;;20.85;100.00
55070;BME280;40967;52.070;8.596;2023-07-29T07:09:12;99599.84;;;20.88;100.00
55070;BME280;40967;52.070;8.596;2023-07-29T07:11:37;99608.53;;;20.90;100.00
55070;BME280;40967;52.070;8.596;2023-07-29T07:14:03;99611.03;;;20.95;100.00
55070;BME280;40967;52.070;8.596;2023-07-29T07:16:28;99617.22;;;20.92;100.00
55070;BME280;40967;52.070;8.596;2023-07-29T07:18:55;99615.13;;;20.86;100.00
55070;BME280;40967;52.070;8.596;2023-07-29T07:21:20;99609.25;;;20.87;100.00
55070;BME280;40967;52.070;8.596;2023-07-29T07:23:46;99617.59;;;20.91;100.00
55070;BME280;40967;52.070;8.596;2023-07-29T07:26:11;99610.94;;;20.92;100.00
55070;BME280;40967;52.070;8.596;2023-07-29T07:28:36;99600.53;;;20.85;100.00
55070;BME280;40967;52.070;8.596;2023-07-29T07:31:02;99609.59;;;20.86;100.00
55070;BME280;40967;52.070;8.596;2023-07-29T07:33:27;99611.84;;;20.80;100.00
55070;BME280;40967;52.070;8.596;2023-07-29T07:35:53;99608.56;;;20.75;100.00
55070;BME280;40967;52.070;8.596;2023-07-29T07:38:18;99620.31;;;20.72;100.00
55070;BME280;40967;52.070;8.596;2023-07-29T07:40:55;99606.19;;;20.58;100.00
55070;BME280;40967;52.070;8.596;2023-07-29T07:43:22;99605.84;;;20.44;100.00
55070;BME280;40967;52.070;8.596;2023-07-29T07:45:47;99610.81;;;20.38;100.00
55070;BME280;40967;52.070;8.596;2023-07-29T07:48:13;99600.41;;;20.47;100.00
55070;BME280;40967;52.070;8.596;2023-07-29T07:50:39;99610.19;;;20.60;100.00
55070;BME280;40967;52.070;8.596;2023-07-29T07:53:04;99606.81;;;20.67;100.00
55070;BME280;40967;52.070;8.596;2023-07-29T07:55:29;99608.91;;;20.73;100.00
55070;BME280;40967;52.070;8.596;2023-07-29T07:57:58;99610.16;;;20.76;100.00
55070;BME280;40967;52.070;8.596;2023-07-29T08:00:23;99591.72;;;20.80;100.00
55070;BME280;40967;52.070;8.596;2023-07-29T08:02:49;99599.19;;;20.95;100.00
55070;BME280;40967;52.070;8.596;2023-07-29T08:05:14;99611.13;;;20.99;100.00
55070;BME280;40967;52.070;8.596;2023-07-29T08:07:40;99604.97;;;21.05;100.00
55070;BME280;40967;52.070;8.596;2023-07-29T08:10:05;99602.72;;;21.11;99.33
55070;BME280;40967;52.070;8.596;2023-07-29T08:12:32;99609.84;;;21.12;98.52
55070;BME280;40967;52.070;8.596;2023-07-29T08:14:57;99611.84;;;21.15;97.01
55070;BME280;40967;52.070;8.596;2023-07-29T08:17:23;99608.81;;;21.20;95.39
55070;BME280;40967;52.070;8.596;2023-07-29T08:19:48;99612.16;;;21.29;94.67
55070;BME280;40967;52.070;8.596;2023-07-29T08:22:14;99611.94;;;21.37;92.65
55070;BME280;40967;52.070;8.596;2023-07-29T08:24:39;99608.81;;;21.39;90.37
55070;BME280;40967;52.070;8.596;2023-07-29T08:27:05;99612.59;;;21.31;89.63
55070;BME280;40967;52.070;8.596;2023-07-29T08:29:31;99625.13;;;21.09;87.66
55070;BME280;40967;52.070;8.596;2023-07-29T08:31:56;99623.47;;;21.05;87.47
55070;BME280;40967;52.070;8.596;2023-07-29T08:34:22;99623.09;;;21.06;86.72
55070;BME280;40967;52.070;8.596;2023-07-29T08:36:47;99621.81;;;21.00;85.22
55070;BME280;40967;52.070;8.596;2023-07-29T08:39:13;99632.28;;;20.95;84.84
55070;BME280;40967;52.070;8.596;2023-07-29T08:42:03;99632.13;;;20.88;85.54
55070;BME280;40967;52.070;8.596;2023-07-29T08:44:39;99641.19;;;20.88;85.70
55070;BME280;40967;52.070;8.596;2023-07-29T08:47:05;99636.97;;;20.94;85.05
55070;BME280;40967;52.070;8.596;2023-07-29T08:49:31;99636.00;;;21.02;84.07
55070;BME280;40967;52.070;8.596;2023-07-29T08:51:57;99647.34;;;21.16;83.20
55070;BME280;40967;52.070;8.596;2023-07-29T08:54:26;99633.94;;;21.34;82.58
55070;BME280;40967;52.070;8.596;2023-07-29T08:56:52;99632.44;;;21.36;81.69
55070;BME280;40967;52.070;8.596;2023-07-29T08:59:18;99622.69;;;21.42;82.65
55070;BME280;40967;52.070;8.596;2023-07-29T09:01:44;99632.97;;;21.61;82.17
55070;BME280;40967;52.070;8.596;2023-07-29T09:04:09;99630.81;;;21.74;81.75
55070;BME280;40967;52.070;8.596;2023-07-29T09:06:36;99620.50;;;21.90;80.13
55070;BME280;40967;52.070;8.596;2023-07-29T09:09:03;99628.38;;;22.10;77.50
55070;BME280;40967;52.070;8.596;2023-07-29T09:11:29;99629.81;;;22.46;75.39
55070;BME280;40967;52.070;8.596;2023-07-29T09:13:54;99620.78;;;22.72;70.45
55070;BME280;40967;52.070;8.596;2023-07-29T09:16:23;99617.72;;;22.54;69.61
55070;BME280;40967;52.070;8.596;2023-07-29T09:18:50;99629.88;;;22.49;70.11
55070;BME280;40967;52.070;8.596;2023-07-29T09:21:17;99617.25;;;22.52;69.92
55070;BME280;40967;52.070;8.596;2023-07-29T09:23:44;99619.09;;;22.64;69.06
55070;BME280;40967;52.070;8.596;2023-07-29T09:26:10;99626.75;;;22.74;69.18
55070;BME280;40967;52.070;8.596;2023-07-29T09:28:40;99625.28;;;22.83;69.49
55070;BME280;40967;52.070;8.596;2023-07-29T09:31:06;99619.41;;;23.11;69.47
55070;BME280;40967;52.070;8.596;2023-07-29T09:33:35;99628.03;;;23.35;68.96
55070;BME280;40967;52.070;8.596;2023-07-29T09:36:14;99623.91;;;23.52;67.86
55070;BME280;40967;52.070;8.596;2023-07-29T09:38:39;99634.81;;;23.71;67.00
55070;BME280;40967;52.070;8.596;2023-07-29T09:41:05;99638.28;;;23.94;67.06
55070;BME280;40967;52.070;8.596;2023-07-29T09:43:32;99637.75;;;24.18;65.67
55070;BME280;40967;52.070;8.596;2023-07-29T09:46:02;99632.50;;;24.53;64.90
55070;BME280;40967;52.070;8.596;2023-07-29T09:48:32;99634.16;;;24.58;62.77
55070;BME280;40967;52.070;8.596;2023-07-29T09:50:58;99645.72;;;24.23;62.54
55070;BME280;40967;52.070;8.596;2023-07-29T09:53:24;99643.44;;;23.96;63.29
55070;BME280;40967;52.070;8.596;2023-07-29T09:55:49;99638.41;;;24.08;63.03
55070;BME280;40967;52.070;8.596;2023-07-29T09:58:19;99643.44;;;24.32;62.66
55070;BME280;40967;52.070;8.596;2023-07-29T10:00:45;99631.72;;;24.53;61.88
55070;BME280;40967;52.070;8.596;2023-07-29T10:03:12;99634.44;;;24.46;61.36
55070;BME280;40967;52.070;8.596;2023-07-29T10:05:39;99637.31;;;24.56;61.88
55070;BME280;40967;52.070;8.596;2023-07-29T10:08:06;99645.19;;;24.51;60.63
55070;BME280;40967;52.070;8.596;2023-07-29T10:10:32;99638.00;;;24.46;60.82
55070;BME280;40967;52.070;8.596;2023-07-29T10:12:57;99634.03;;;24.44;60.61
55070;BME280;40967;52.070;8.596;2023-07-29T10:15:24;99625.41;;;24.56;60.43
55070;BME280;40967;52.070;8.596;2023-07-29T10:17:50;99634.06;;;24.47;60.05
55070;BME280;40967;52.070;8.596;2023-07-29T10:20:15;99631.50;;;24.28;60.43
55070;BME280;40967;52.070;8.596;2023-07-29T10:22:44;99622.34;;;24.24;59.09
55070;BME280;40967;52.070;8.596;2023-07-29T10:25:21;99623.50;;;23.83;59.36
55070;BME280;40967;52.070;8.596;2023-07-29T10:27:49;99634.78;;;23.68;60.82
55070;BME280;40967;52.070;8.596;2023-07-29T10:30:17;99633.81;;;23.86;62.05
55070;BME280;40967;52.070;8.596;2023-07-29T10:32:44;99640.03;;;24.09;61.30
55070;BME280;40967;52.070;8.596;2023-07-29T10:35:11;99631.22;;;24.00;61.43
55070;BME280;40967;52.070;8.596;2023-07-29T10:37:37;99641.19;;;24.08;61.72
55070;BME280;40967;52.070;8.596;2023-07-29T10:40:06;99633.50;;;24.31;61.02
55070;BME280;40967;52.070;8.596;2023-07-29T10:42:32;99634.69;;;24.71;58.24
55070;BME280;40967;52.070;8.596;2023-07-29T10:44:57;99622.63;;;24.56;57.47
55070;BME280;40967;52.070;8.596;2023-07-29T10:47:25;99619.47;;;24.57;58.14
55070;BME280;40967;52.070;8.596;2023-07-29T10:49:59;99618.84;;;24.78;58.66
55070;BME280;40967;52.070;8.596;2023-07-29T10:52:39;99624.91;;;24.91;56.97
55070;BME280;40967;52.070;8.596;2023-07-29T10:55:24;99619.34;;;24.91;57.02
55070;BME280;40967;52.070;8.596;2023-07-29T10:57:50;99628.16;;;25.03;57.04
55070;BME280;40967;52.070;8.596;2023-07-29T11:00:16;99636.56;;;25.14;56.36
55070;BME280;40967;52.070;8.596;2023-07-29T11:02:56;99628.25;;;25.17;56.47
55070;BME280;40967;52.070;8.596;2023-07-29T11:05:22;99628.31;;;25.31;55.56
55070;BME280;40967;52.070;8.596;2023-07-29T11:07:49;99618.69;;;25.15;55.83
55070;BME280;40967;52.070;8.596;2023-07-29T11:10:15;99628.25;;;25.17;56.02
55070;BME280;40967;52.070;8.596;2023-07-29T11:12:51;99625.31;;;24.93;56.63
55070;BME280;40967;52.070;8.596;2023-07-29T11:15:22;99628.19;;;25.07;56.65
55070;BME280;40967;52.070;8.596;2023-07-29T11:17:54;99637.75;;;25.16;56.25
55070;BME280;40967;52.070;8.596;2023-07-29T11:20:24;99637.75;;;25.16;56.09
55070;BME280;40967;52.070;8.596;2023-07-29T11:22:50;99628.25;;;25.21;55.59
55070;BME280;40967;52.070;8.596;2023-07-29T11:25:17;99635.84;;;25.27;55.76
55070;BME280;40967;52.070;8.596;2023-07-29T11:27:44;99631.75;;;25.07;55.84
55070;BME280;40967;52.070;8.596;2023-07-29T11:30:11;99620.13;;;24.88;56.60
55070;BME280;40967;52.070;8.596;2023-07-29T11:32:38;99622.56;;;24.96;56.88
55070;BME280;40967;52.070;8.596;2023-07-29T11:35:09;99621.81;;;25.03;57.37
55070;BME280;40967;52.070;8.596;2023-07-29T11:37:36;99619.13;;;25.20;57.03
55070;BME280;40967;52.070;8.596;2023-07-29T11:40:02;99625.97;;;25.37;56.34
55070;BME280;40967;52.070;8.596;2023-07-29T11:42:28;99628.75;;;25.37;55.66
55070;BME280;40967;52.070;8.596;2023-07-29T11:44:57;99624.03;;;25.41;55.00
55070;BME280;40967;52.070;8.596;2023-07-29T11:47:23;99601.69;;;25.23;55.03
55070;BME280;40967;52.070;8.596;2023-07-29T11:49:48;99621.97;;;25.34;55.34
55070;BME280;40967;52.070;8.596;2023-07-29T11:52:14;99598.91;;;25.23;55.47
55070;BME280;40967;52.070;8.596;2023-07-29T11:54:44;99610.16;;;25.48;54.87
55070;BME280;40967;52.070;8.596;2023-07-29T11:57:09;99613.38;;;25.57;55.37
55070;BME280;40967;52.070;8.596;2023-07-29T11:59:36;99604.28;;;25.70;54.34
55070;BME280;40967;52.070;8.596;2023-07-29T12:02:06;99610.72;;;25.92;53.00
55070;BME280;40967;52.070;8.596;2023-07-29T12:04:35;99607.53;;;25.90;53.13
55070;BME280;40967;52.070;8.596;2023-07-29T12:07:00;99618.22;;;25.77;53.34
55070;BME280;40967;52.070;8.596;2023-07-29T12:09:27;99616.91;;;25.47;54.31
55070;BME280;40967;52.070;8.596;2023-07-29T12:11:54;99612.53;;;25.46;54.96
55070;BME280;40967;52.070;8.596;2023-07-29T12:14:19;99612.13;;;25.44;54.77
55070;BME280;40967;52.070;8.596;2023-07-29T12:16:47;99613.63;;;25.27;55.20
55070;BME280;40967;52.070;8.596;2023-07-29T12:19:14;99620.34;;;25.30;55.34
55070;BME280;40967;52.070;8.596;2023-07-29T12:21:41;99602.03;;;25.15;55.32
55070;BME280;40967;52.070;8.596;2023-07-29T12:24:07;99606.06;;;25.21;55.91
55070;BME280;40967;52.070;8.596;2023-07-29T12:26:32;99615.59;;;25.30;55.87
55070;BME280;40967;52.070;8.596;2023-07-29T12:28:58;99615.81;;;25.69;54.77
55070;BME280;40967;52.070;8.596;2023-07-29T12:31:32;99621.81;;;25.89;54.14
55070;BME280;40967;52.070;8.596;2023-07-29T12:33:58;99607.91;;;25.85;53.94
55070;BME280;40967;52.070;8.596;2023-07-29T12:36:39;99613.09;;;25.94;53.84
55070;BME280;40967;52.070;8.596;2023-07-29T12:39:05;99615.75;;;25.51;54.07
55070;BME280;40967;52.070;8.596;2023-07-29T12:41:31;99621.16;;;25.30;55.25
55070;BME280;40967;52.070;8.596;2023-07-29T12:43:56;99620.38;;;25.26;55.56
55070;BME280;40967;52.070;8.596;2023-07-29T12:46:21;99631.38;;;25.09;55.78
55070;BME280;40967;52.070;8.596;2023-07-29T12:48:47;99623.78;;;25.02;56.04
55070;BME280;40967;52.070;8.596;2023-07-29T12:51:12;99619.47;;;25.08;55.87
55070;BME280;40967;52.070;8.596;2023-07-29T12:53:38;99610.31;;;25.08;56.20